sensor_id;sensor_type;location;lat;lon;timestamp;temperature;humidity
19263;DHT22;9765;52.354;20.884;2022-07-29T04:09:20;14.20;99.90
19263;DHT22;9765;52.354;20.884;2022-07-29T04:11:47;14.20;99.90
19263;DHT22;9765;52.354;20.884;2022-07-29T04:14:14;14.30;99.90
19263;DHT22;9765;52.354;20.884;2022-07-29T04:16:40;14.40;99.90
19263;DHT22;9765;52.354;20.884;2022-07-29T04:19:07;14.50;99.90
19263;DHT22;9765;52.354;20.884;2022-07-29T04:21:37;14.60;99.90
19263;DHT22;9765;52.354;20.884;2022-07-29T04:24:04;14.70;99.90
19263;DHT22;9765;52.354;20.884;2022-07-29T04:26:32;14.90;99.90
19263;DHT22;9765;52.354;20.884;2022-07-29T04:28:58;15.10;99.90
19263;DHT22;9765;52.354;20.884;2022-07-29T04:31:25;15.20;99.90
19263;DHT22;9765;52.354;20.884;2022-07-29T04:33:52;15.40;99.90
19263;DHT22;9765;52.354;20.884;2022-07-29T04:36:18;15.40;99.90
19263;DHT22;9765;52.354;20.884;2022-07-29T04:38:45;15.50;99.90
19263;DHT22;9765;52.354;20.884;2022-07-29T04:41:12;15.60;99.90
19263;DHT22;9765;52.354;20.884;2022-07-29T04:43:40;15.80;99.90
19263;DHT22;9765;52.354;20.884;2022-07-29T04:46:07;15.80;99.90
19263;DHT22;9765;52.354;20.884;2022-07-29T04:48:33;15.90;99.90
19263;DHT22;9765;52.354;20.884;2022-07-29T04:51:00;16.00;99.90
19263;DHT22;9765;52.354;20.884;2022-07-29T04:53:27;16.10;99.90
19263;DHT22;9765;52.354;20.884;2022-07-29T04:55:53;16.10;99.90
19263;DHT22;9765;52.354;20.884;2022-07-29T04:58:20;16.30;99.90
19263;DHT22;9765;52.354;20.884;2022-07-29T05:00:49;16.50;99.90
19263;DHT22;9765;52.354;20.884;2022-07-29T05:03:16;16.50;99.90
19263;DHT22;9765;52.354;20.884;2022-07-29T05:05:43;16.70;99.90
19263;DHT22;9765;52.354;20.884;2022-07-29T05:08:09;16.70;99.90
19263;DHT22;9765;52.354;20.884;2022-07-29T05:10:36;16.70;99.90
19263;DHT22;9765;52.354;20.884;2022-07-29T05:13:04;16.90;99.90
19263;DHT22;9765;52.354;20.884;2022-07-29T05:15:31;17.00;99.90
19263;DHT22;9765;52.354;20.884;2022-07-29T05:17:59;17.80;99.90
19263;DHT22;9765;52.354;20.884;2022-07-29T05:20:26;17.40;99.90
19263;DHT22;9765;52.354;20.884;2022-07-29T05:22:53;17.40;99.90
19263;DHT22;9765;52.354;20.884;2022-07-29T05:25:20;17.60;99.90
19263;DHT22;9765;52.354;20.884;2022-07-29T05:27:47;17.80;99.90
19263;DHT22;9765;52.354;20.884;2022-07-29T05:30:14;17.90;99.90
19263;DHT22;9765;52.354;20.884;2022-07-29T05:32:40;18.00;99.90
19263;DHT22;9765;52.354;20.884;2022-07-29T05:35:09;18.10;99.90
19263;DHT22;9765;52.354;20.884;2022-07-29T05:37:36;18.10;99.90
19263;DHT22;9765;52.354;20.884;2022-07-29T05:40:04;18.20;99.90
19263;DHT22;9765;52.354;20.884;2022-07-29T05:42:31;18.40;99.90
19263;DHT22;9765;52.354;20.884;2022-07-29T05:44:59;18.50;99.90
19263;DHT22;9765;52.354;20.884;2022-07-29T05:47:26;18.80;99.90
19263;DHT22;9765;52.354;20.884;2022-07-29T05:49:53;18.80;99.90
19263;DHT22;9765;52.354;20.884;2022-07-29T05:52:21;19.00;99.90
19263;DHT22;9765;52.354;20.884;2022-07-29T05:54:47;19.20;99.90
19263;DHT22;9765;52.354;20.884;2022-07-29T05:57:17;19.20;99.90
19263;DHT22;9765;52.354;20.884;2022-07-29T05:59:44;19.40;99.90
19263;DHT22;9765;52.354;20.884;2022-07-29T06:02:11;19.40;99.90
19263;DHT22;9765;52.354;20.884;2022-07-29T06:04:38;19.40;99.90
19263;DHT22;9765;52.354;20.884;2022-07-29T06:07:05;19.40;99.90
19263;DHT22;9765;52.354;20.884;2022-07-29T06:09:33;19.30;99.90
19263;DHT22;9765;52.354;20.884;2022-07-29T06:12:00;19.30;99.90
19263;DHT22;9765;52.354;20.884;2022-07-29T06:14:27;19.30;99.90
19263;DHT22;9765;52.354;20.884;2022-07-29T06:16:53;19.20;99.90
19263;DHT22;9765;52.354;20.884;2022-07-29T06:19:20;19.40;99.90
19263;DHT22;9765;52.354;20.884;2022-07-29T06:21:47;19.30;99.90
19263;DHT22;9765;52.354;20.884;2022-07-29T06:24:15;19.40;99.90
19263;DHT22;9765;52.354;20.884;2022-07-29T06:26:43;19.40;99.90
19263;DHT22;9765;52.354;20.884;2022-07-29T06:29:11;19.50;99.90
19263;DHT22;9765;52.354;20.884;2022-07-29T06:31:38;19.80;99.90
19263;DHT22;9765;52.354;20.884;2022-07-29T06:34:05;20.20;99.90
19263;DHT22;9765;52.354;20.884;2022-07-29T06:36:34;20.40;99.90
19263;DHT22;9765;52.354;20.884;2022-07-29T06:39:01;20.60;99.90
19263;DHT22;9765;52.354;20.884;2022-07-29T06:41:29;20.60;99.90
19263;DHT22;9765;52.354;20.884;2022-07-29T06:43:57;20.60;99.90
19263;DHT22;9765;52.354;20.884;2022-07-29T06:46:24;20.60;99.90
19263;DHT22;9765;52.354;20.884;2022-07-29T06:48:51;20.60;99.90
19263;DHT22;9765;52.354;20.884;2022-07-29T06:51:19;20.70;99.90
19263;DHT22;9765;52.354;20.884;2022-07-29T06:53:46;20.90;99.90
19263;DHT22;9765;52.354;20.884;2022-07-29T06:56:12;21.10;99.90
19263;DHT22;9765;52.354;20.884;2022-07-29T06:58:39;21.00;99.90
19263;DHT22;9765;52.354;20.884;2022-07-29T07:01:07;21.00;99.90
19263;DHT22;9765;52.354;20.884;2022-07-29T07:03:34;21.20;99.90
19263;DHT22;9765;52.354;20.884;2022-07-29T07:06:00;21.60;99.90
19263;DHT22;9765;52.354;20.884;2022-07-29T07:08:27;21.80;99.90
19263;DHT22;9765;52.354;20.884;2022-07-29T07:10:54;21.90;99.90
19263;DHT22;9765;52.354;20.884;2022-07-29T07:13:22;22.10;99.90
19263;DHT22;9765;52.354;20.884;2022-07-29T07:15:49;22.20;99.90
19263;DHT22;9765;52.354;20.884;2022-07-29T07:18:18;22.20;99.90
19263;DHT22;9765;52.354;20.884;2022-07-29T07:20:45;22.20;99.90
19263;DHT22;9765;52.354;20.884;2022-07-29T07:23:12;22.20;99.90
19263;DHT22;9765;52.354;20.884;2022-07-29T07:25:39;22.20;99.90
19263;DHT22;9765;52.354;20.884;2022-07-29T07:28:07;22.10;99.90
19263;DHT22;9765;52.354;20.884;2022-07-29T07:30:34;22.00;99.90
19263;DHT22;9765;52.354;20.884;2022-07-29T07:33:00;22.10;99.90
19263;DHT22;9765;52.354;20.884;2022-07-29T07:35:28;22.30;99.90
19263;DHT22;9765;52.354;20.884;2022-07-29T07:37:56;22.50;99.90
19263;DHT22;9765;52.354;20.884;2022-07-29T07:40:23;22.70;99.90
19263;DHT22;9765;52.354;20.884;2022-07-29T07:42:50;23.00;99.90
19263;DHT22;9765;52.354;20.884;2022-07-29T07:45:17;22.90;99.90
19263;DHT22;9765;52.354;20.884;2022-07-29T07:47:43;22.90;99.90
19263;DHT22;9765;52.354;20.884;2022-07-29T07:50:11;22.90;99.90
19263;DHT22;9765;52.354;20.884;2022-07-29T07:52:48;23.00;99.90
19263;DHT22;9765;52.354;20.884;2022-07-29T07:55:15;22.90;99.90
19263;DHT22;9765;52.354;20.884;2022-07-29T07:57:42;22.90;99.90
19263;DHT22;9765;52.354;20.884;2022-07-29T08:00:09;23.10;99.90
19263;DHT22;9765;52.354;20.884;2022-07-29T08:02:37;23.30;99.90
19263;DHT22;9765;52.354;20.884;2022-07-29T08:05:05;23.50;99.90
19263;DHT22;9765;52.354;20.884;2022-07-29T08:07:32;23.30;99.90
19263;DHT22;9765;52.354;20.884;2022-07-29T08:10:00;23.30;99.90
19263;DHT22;9765;52.354;20.884;2022-07-29T08:12:27;24.00;99.90
19263;DHT22;9765;52.354;20.884;2022-07-29T08:14:53;23.90;99.90
19263;DHT22;9765;52.354;20.884;2022-07-29T08:17:20;24.30;99.90
19263;DHT22;9765;52.354;20.884;2022-07-29T08:19:47;24.60;99.90
19263;DHT22;9765;52.354;20.884;2022-07-29T08:22:15;24.80;99.90
19263;DHT22;9765;52.354;20.884;2022-07-29T08:24:41;24.80;99.90
19263;DHT22;9765;52.354;20.884;2022-07-29T08:27:19;25.00;99.90
19263;DHT22;9765;52.354;20.884;2022-07-29T08:29:46;24.90;99.90
19263;DHT22;9765;52.354;20.884;2022-07-29T08:32:13;24.90;99.90
19263;DHT22;9765;52.354;20.884;2022-07-29T08:34:40;24.80;99.90
19263;DHT22;9765;52.354;20.884;2022-07-29T08:37:06;24.80;99.90
19263;DHT22;9765;52.354;20.884;2022-07-29T08:39:33;24.70;99.90
19263;DHT22;9765;52.354;20.884;2022-07-29T08:42:00;24.60;99.90
19263;DHT22;9765;52.354;20.884;2022-07-29T08:44:27;24.80;99.90
19263;DHT22;9765;52.354;20.884;2022-07-29T08:46:54;24.60;99.90
19263;DHT22;9765;52.354;20.884;2022-07-29T08:49:21;24.80;99.90
19263;DHT22;9765;52.354;20.884;2022-07-29T08:51:48;24.80;99.90
19263;DHT22;9765;52.354;20.884;2022-07-29T08:54:17;24.60;99.90
19263;DHT22;9765;52.354;20.884;2022-07-29T08:56:45;24.50;99.90
19263;DHT22;9765;52.354;20.884;2022-07-29T08:59:14;24.60;99.90
19263;DHT22;9765;52.354;20.884;2022-07-29T09:01:44;24.70;99.90
19263;DHT22;9765;52.354;20.884;2022-07-29T09:04:13;24.80;99.90
19263;DHT22;9765;52.354;20.884;2022-07-29T09:06:43;24.80;99.90
19263;DHT22;9765;52.354;20.884;2022-07-29T09:09:10;24.90;99.90
19263;DHT22;9765;52.354;20.884;2022-07-29T09:11:39;24.90;99.90
19263;DHT22;9765;52.354;20.884;2022-07-29T09:14:06;25.10;99.90
19263;DHT22;9765;52.354;20.884;2022-07-29T09:16:51;25.20;99.90
19263;DHT22;9765;52.354;20.884;2022-07-29T09:19:29;25.50;99.90
19263;DHT22;9765;52.354;20.884;2022-07-29T09:21:58;25.60;99.90
19263;DHT22;9765;52.354;20.884;2022-07-29T09:24:26;25.60;99.90
19263;DHT22;9765;52.354;20.884;2022-07-29T09:26:53;25.40;99.90
19263;DHT22;9765;52.354;20.884;2022-07-29T09:29:21;25.50;99.90
19263;DHT22;9765;52.354;20.884;2022-07-29T09:31:57;25.60;99.90
19263;DHT22;9765;52.354;20.884;2022-07-29T09:34:25;25.60;99.90
19263;DHT22;9765;52.354;20.884;2022-07-29T09:36:54;25.60;99.90
19263;DHT22;9765;52.354;20.884;2022-07-29T09:39:28;25.70;99.90
19263;DHT22;9765;52.354;20.884;2022-07-29T09:41:59;25.80;99.90
19263;DHT22;9765;52.354;20.884;2022-07-29T09:44:41;25.90;99.90
19263;DHT22;9765;52.354;20.884;2022-07-29T09:47:09;25.70;99.90
19263;DHT22;9765;52.354;20.884;2022-07-29T09:49:50;25.20;99.90
19263;DHT22;9765;52.354;20.884;2022-07-29T09:52:17;25.40;99.90
19263;DHT22;9765;52.354;20.884;2022-07-29T09:54:45;25.70;99.90
19263;DHT22;9765;52.354;20.884;2022-07-29T09:57:24;26.00;99.90
19263;DHT22;9765;52.354;20.884;2022-07-29T09:59:57;26.00;99.90
19263;DHT22;9765;52.354;20.884;2022-07-29T10:02:29;26.20;99.90
19263;DHT22;9765;52.354;20.884;2022-07-29T10:04:57;26.40;99.90
19263;DHT22;9765;52.354;20.884;2022-07-29T10:07:43;26.50;99.90
19263;DHT22;9765;52.354;20.884;2022-07-29T10:10:10;26.40;99.90
19263;DHT22;9765;52.354;20.884;2022-07-29T10:12:49;26.90;99.90
19263;DHT22;9765;52.354;20.884;2022-07-29T10:15:16;26.40;99.90
19263;DHT22;9765;52.354;20.884;2022-07-29T10:17:45;26.20;99.90
19263;DHT22;9765;52.354;20.884;2022-07-29T10:20:15;26.20;99.90
19263;DHT22;9765;52.354;20.884;2022-07-29T10:22:42;26.10;99.90
19263;DHT22;9765;52.354;20.884;2022-07-29T10:25:10;26.00;99.90
19263;DHT22;9765;52.354;20.884;2022-07-29T10:27:37;26.00;99.90
19263;DHT22;9765;52.354;20.884;2022-07-29T10:30:05;26.00;99.90
19263;DHT22;9765;52.354;20.884;2022-07-29T10:35:38;25.90;99.90
19263;DHT22;9765;52.354;20.884;2022-07-29T10:38:32;25.80;99.90
19263;DHT22;9765;52.354;20.884;2022-07-29T10:41:11;25.80;99.90
19263;DHT22;9765;52.354;20.884;2022-07-29T10:43:58;25.80;99.90
19263;DHT22;9765;52.354;20.884;2022-07-29T10:46:26;25.90;99.90
19263;DHT22;9765;52.354;20.884;2022-07-29T10:49:07;26.10;99.90
19263;DHT22;9765;52.354;20.884;2022-07-29T10:51:59;26.20;99.90
19263;DHT22;9765;52.354;20.884;2022-07-29T10:54:37;26.40;99.90
19263;DHT22;9765;52.354;20.884;2022-07-29T10:57:19;26.60;99.90
19263;DHT22;9765;52.354;20.884;2022-07-29T10:59:47;26.80;99.90
19263;DHT22;9765;52.354;20.884;2022-07-29T11:02:43;27.00;99.90
19263;DHT22;9765;52.354;20.884;2022-07-29T11:05:11;27.00;99.90
19263;DHT22;9765;52.354;20.884;2022-07-29T11:08:21;26.90;99.70
19263;DHT22;9765;52.354;20.884;2022-07-29T11:10:49;26.80;99.20
19263;DHT22;9765;52.354;20.884;2022-07-29T11:13:45;26.60;99.10
19263;DHT22;9765;52.354;20.884;2022-07-29T11:16:12;26.30;99.90
19263;DHT22;9765;52.354;20.884;2022-07-29T11:19:21;26.10;99.90
19263;DHT22;9765;52.354;20.884;2022-07-29T11:21:48;25.80;99.80
19263;DHT22;9765;52.354;20.884;2022-07-29T11:24:19;26.00;99.90
19263;DHT22;9765;52.354;20.884;2022-07-29T11:29:53;26.20;99.80
19263;DHT22;9765;52.354;20.884;2022-07-29T11:32:23;26.40;99.80
19263;DHT22;9765;52.354;20.884;2022-07-29T11:35:12;26.30;99.90
19263;DHT22;9765;52.354;20.884;2022-07-29T11:37:39;26.10;99.60
19263;DHT22;9765;52.354;20.884;2022-07-29T11:40:16;26.00;99.90
19263;DHT22;9765;52.354;20.884;2022-07-29T11:42:45;25.90;99.20
19263;DHT22;9765;52.354;20.884;2022-07-29T11:45:15;25.90;99.00
19263;DHT22;9765;52.354;20.884;2022-07-29T11:47:51;25.80;98.60
19263;DHT22;9765;52.354;20.884;2022-07-29T11:50:28;25.80;99.70
19263;DHT22;9765;52.354;20.884;2022-07-29T11:52:56;25.90;99.90
19263;DHT22;9765;52.354;20.884;2022-07-29T11:55:25;26.10;99.10
19263;DHT22;9765;52.354;20.884;2022-07-29T11:57:54;26.00;99.80
19263;DHT22;9765;52.354;20.884;2022-07-29T12:00:26;26.30;99.50
19263;DHT22;9765;52.354;20.884;2022-07-29T12:03:10;26.50;99.90
19263;DHT22;9765;52.354;20.884;2022-07-29T12:05:42;26.60;99.40
19263;DHT22;9765;52.354;20.884;2022-07-29T12:08:12;26.90;99.30
19263;DHT22;9765;52.354;20.884;2022-07-29T12:10:41;26.80;98.30
19263;DHT22;9765;52.354;20.884;2022-07-29T12:13:09;26.70;97.50
19263;DHT22;9765;52.354;20.884;2022-07-29T12:15:40;26.60;99.30
19263;DHT22;9765;52.354;20.884;2022-07-29T12:18:18;26.70;98.40
19263;DHT22;9765;52.354;20.884;2022-07-29T12:20:47;26.80;97.90
19263;DHT22;9765;52.354;20.884;2022-07-29T12:23:15;27.00;98.70
19263;DHT22;9765;52.354;20.884;2022-07-29T12:25:47;27.20;97.50
19263;DHT22;9765;52.354;20.884;2022-07-29T12:28:14;27.50;97.20
19263;DHT22;9765;52.354;20.884;2022-07-29T12:30:45;27.50;95.90
19263;DHT22;9765;52.354;20.884;2022-07-29T12:33:19;27.30;96.90
19263;DHT22;9765;52.354;20.884;2022-07-29T12:35:48;27.20;97.10
19263;DHT22;9765;52.354;20.884;2022-07-29T12:38:16;27.00;98.60
19263;DHT22;9765;52.354;20.884;2022-07-29T12:40:46;27.00;99.10
19263;DHT22;9765;52.354;20.884;2022-07-29T12:43:15;27.00;98.00
19263;DHT22;9765;52.354;20.884;2022-07-29T12:45:44;27.00;98.90
19263;DHT22;9765;52.354;20.884;2022-07-29T12:48:32;26.90;98.00
19263;DHT22;9765;52.354;20.884;2022-07-29T12:51:12;26.60;97.50
19263;DHT22;9765;52.354;20.884;2022-07-29T12:53:40;26.30;97.70
19263;DHT22;9765;52.354;20.884;2022-07-29T12:56:16;26.10;97.20
19263;DHT22;9765;52.354;20.884;2022-07-29T12:58:43;26.10;99.00
19263;DHT22;9765;52.354;20.884;2022-07-29T13:01:11;26.10;99.10
19263;DHT22;9765;52.354;20.884;2022-07-29T13:03:44;26.00;98.00
19263;DHT22;9765;52.354;20.884;2022-07-29T13:06:29;26.10;98.40
19263;DHT22;9765;52.354;20.884;2022-07-29T13:09:10;26.00;97.80
19263;DHT22;9765;52.354;20.884;2022-07-29T13:11:41;26.40;98.60
19263;DHT22;9765;52.354;20.884;2022-07-29T13:14:09;26.20;98.30
19263;DHT22;9765;52.354;20.884;2022-07-29T13:16:40;26.10;98.80
19263;DHT22;9765;52.354;20.884;2022-07-29T13:19:39;26.40;97.90
19263;DHT22;9765;52.354;20.884;2022-07-29T13:22:07;25.70;98.90
19263;DHT22;9765;52.354;20.884;2022-07-29T13:24:45;25.90;98.70
19263;DHT22;9765;52.354;20.884;2022-07-29T13:27:15;25.90;98.90
19263;DHT22;9765;52.354;20.884;2022-07-29T13:29:43;25.80;98.30
19263;DHT22;9765;52.354;20.884;2022-07-29T13:32:09;25.80;97.60
19263;DHT22;9765;52.354;20.884;2022-07-29T13:34:37;26.40;98.80
19263;DHT22;9765;52.354;20.884;2022-07-29T13:37:04;26.50;97.70
19263;DHT22;9765;52.354;20.884;2022-07-29T13:39:31;26.10;97.30
19263;DHT22;9765;52.354;20.884;2022-07-29T13:41:57;26.30;95.70
19263;DHT22;9765;52.354;20.884;2022-07-29T13:44:26;26.40;96.70
19263;DHT22;9765;52.354;20.884;2022-07-29T13:46:53;26.50;95.70
19263;DHT22;9765;52.354;20.884;2022-07-29T13:49:21;26.50;96.00
19263;DHT22;9765;52.354;20.884;2022-07-29T13:51:48;26.40;96.10
19263;DHT22;9765;52.354;20.884;2022-07-29T13:54:16;26.60;96.70
19263;DHT22;9765;52.354;20.884;2022-07-29T13:56:42;26.60;97.10
19263;DHT22;9765;52.354;20.884;2022-07-29T13:59:09;26.70;96.40
19263;DHT22;9765;52.354;20.884;2022-07-29T14:01:38;26.80;95.80
19263;DHT22;9765;52.354;20.884;2022-07-29T14:04:06;26.50;95.30
19263;DHT22;9765;52.354;20.884;2022-07-29T14:06:33;26.40;95.20
19263;DHT22;9765;52.354;20.884;2022-07-29T14:09:00;26.10;95.20
19263;DHT22;9765;52.354;20.884;2022-07-29T14:11:27;26.00;96.30
19263;DHT22;9765;52.354;20.884;2022-07-29T14:13:54;25.80;97.10
19263;DHT22;9765;52.354;20.884;2022-07-29T14:16:21;25.90;95.20
19263;DHT22;9765;52.354;20.884;2022-07-29T14:18:49;26.00;96.30
19263;DHT22;9765;52.354;20.884;2022-07-29T14:21:16;26.00;94.60
19263;DHT22;9765;52.354;20.884;2022-07-29T14:23:42;26.30;95.60
19263;DHT22;9765;52.354;20.884;2022-07-29T14:26:09;26.20;96.30
19263;DHT22;9765;52.354;20.884;2022-07-29T14:28:36;25.60;95.80
19263;DHT22;9765;52.354;20.884;2022-07-29T14:31:02;25.50;96.40
19263;DHT22;9765;52.354;20.884;2022-07-29T14:33:32;25.50;97.30
19263;DHT22;9765;52.354;20.884;2022-07-29T14:36:00;25.40;96.70
19263;DHT22;9765;52.354;20.884;2022-07-29T14:38:27;25.70;97.70
19263;DHT22;9765;52.354;20.884;2022-07-29T14:40:53;25.50;97.40
19263;DHT22;9765;52.354;20.884;2022-07-29T14:43:20;25.60;96.80
19263;DHT22;9765;52.354;20.884;2022-07-29T14:45:47;25.60;97.50
19263;DHT22;9765;52.354;20.884;2022-07-29T14:48:14;25.80;98.70
19263;DHT22;9765;52.354;20.884;2022-07-29T14:50:40;26.20;97.10
19263;DHT22;9765;52.354;20.884;2022-07-29T14:53:09;25.60;97.00
19263;DHT22;9765;52.354;20.884;2022-07-29T14:55:37;25.90;96.90
19263;DHT22;9765;52.354;20.884;2022-07-29T14:58:04;26.10;96.10
19263;DHT22;9765;52.354;20.884;2022-07-29T15:00:31;25.80;96.80
19263;DHT22;9765;52.354;20.884;2022-07-29T15:02:59;25.80;96.30
19263;DHT22;9765;52.354;20.884;2022-07-29T15:05:26;25.60;96.00
19263;DHT22;9765;52.354;20.884;2022-07-29T15:07:53;25.60;96.50
19263;DHT22;9765;52.354;20.884;2022-07-29T15:10:21;25.60;96.30
19263;DHT22;9765;52.354;20.884;2022-07-29T15:12:48;25.80;96.40
19263;DHT22;9765;52.354;20.884;2022-07-29T15:15:14;25.40;96.50
19263;DHT22;9765;52.354;20.884;2022-07-29T15:17:41;25.30;97.10
19263;DHT22;9765;52.354;20.884;2022-07-29T15:20:09;25.20;96.30
19263;DHT22;9765;52.354;20.884;2022-07-29T15:22:39;25.20;96.80
19263;DHT22;9765;52.354;20.884;2022-07-29T15:25:07;25.20;96.40
19263;DHT22;9765;52.354;20.884;2022-07-29T15:27:35;25.00;95.90
19263;DHT22;9765;52.354;20.884;2022-07-29T15:30:03;25.00;95.80
19263;DHT22;9765;52.354;20.884;2022-07-29T15:32:30;25.00;97.80
19263;DHT22;9765;52.354;20.884;2022-07-29T15:34:56;24.90;96.80
19263;DHT22;9765;52.354;20.884;2022-07-29T15:37:23;24.90;97.20
19263;DHT22;9765;52.354;20.884;2022-07-29T15:39:50;24.80;97.20
19263;DHT22;9765;52.354;20.884;2022-07-29T15:42:17;24.70;97.80
19263;DHT22;9765;52.354;20.884;2022-07-29T15:44:45;24.70;97.80
19263;DHT22;9765;52.354;20.884;2022-07-29T15:47:11;24.70;97.90
19263;DHT22;9765;52.354;20.884;2022-07-29T15:49:39;24.70;97.50
19263;DHT22;9765;52.354;20.884;2022-07-29T15:52:08;24.60;97.40
19263;DHT22;9765;52.354;20.884;2022-07-29T15:54:36;24.60;97.60
19263;DHT22;9765;52.354;20.884;2022-07-29T15:57:05;24.30;97.20
19263;DHT22;9765;52.354;20.884;2022-07-29T15:59:32;24.40;97.40
19263;DHT22;9765;52.354;20.884;2022-07-29T16:02:00;24.40;97.80
19263;DHT22;9765;52.354;20.884;2022-07-29T16:04:30;24.40;98.00
19263;DHT22;9765;52.354;20.884;2022-07-29T16:06:57;24.40;97.60
19263;DHT22;9765;52.354;20.884;2022-07-29T16:09:24;24.40;98.50
19263;DHT22;9765;52.354;20.884;2022-07-29T16:11:52;24.30;98.20
19263;DHT22;9765;52.354;20.884;2022-07-29T16:14:18;24.20;98.80
19263;DHT22;9765;52.354;20.884;2022-07-29T16:16:45;24.20;98.60
19263;DHT22;9765;52.354;20.884;2022-07-29T16:19:14;24.20;99.50
19263;DHT22;9765;52.354;20.884;2022-07-29T16:21:41;24.10;98.90
19263;DHT22;9765;52.354;20.884;2022-07-29T16:24:08;24.20;98.70
19263;DHT22;9765;52.354;20.884;2022-07-29T16:26:35;24.20;98.50
19263;DHT22;9765;52.354;20.884;2022-07-29T16:29:02;24.20;98.50
19263;DHT22;9765;52.354;20.884;2022-07-29T16:31:29;24.20;99.10
19263;DHT22;9765;52.354;20.884;2022-07-29T16:33:56;24.30;98.60
19263;DHT22;9765;52.354;20.884;2022-07-29T16:36:24;24.30;99.10
19263;DHT22;9765;52.354;20.884;2022-07-29T16:38:51;24.30;99.60
19263;DHT22;9765;52.354;20.884;2022-07-29T16:41:17;24.30;99.60
19263;DHT22;9765;52.354;20.884;2022-07-29T16:43:44;24.40;99.50
19263;DHT22;9765;52.354;20.884;2022-07-29T16:46:11;24.50;99.50
19263;DHT22;9765;52.354;20.884;2022-07-29T16:48:38;24.60;99.70
19263;DHT22;9765;52.354;20.884;2022-07-29T16:51:06;24.70;98.90
19263;DHT22;9765;52.354;20.884;2022-07-29T16:53:34;24.70;98.60
19263;DHT22;9765;52.354;20.884;2022-07-29T16:56:01;24.80;99.00
19263;DHT22;9765;52.354;20.884;2022-07-29T16:58:28;24.80;98.80
19263;DHT22;9765;52.354;20.884;2022-07-29T17:00:55;24.80;98.30
19263;DHT22;9765;52.354;20.884;2022-07-29T17:03:21;24.80;99.90
19263;DHT22;9765;52.354;20.884;2022-07-29T17:05:48;24.80;99.10
19263;DHT22;9765;52.354;20.884;2022-07-29T17:08:15;24.90;97.70
19263;DHT22;9765;52.354;20.884;2022-07-29T17:10:43;24.80;98.00
19263;DHT22;9765;52.354;20.884;2022-07-29T17:13:12;24.70;98.80
19263;DHT22;9765;52.354;20.884;2022-07-29T17:15:39;24.50;98.70
19263;DHT22;9765;52.354;20.884;2022-07-29T17:18:07;24.40;99.40
19263;DHT22;9765;52.354;20.884;2022-07-29T17:20:34;24.20;99.40
19263;DHT22;9765;52.354;20.884;2022-07-29T17:23:01;24.10;99.20
19263;DHT22;9765;52.354;20.884;2022-07-29T17:25:28;24.00;99.90
19263;DHT22;9765;52.354;20.884;2022-07-29T17:27:56;23.90;99.90
19263;DHT22;9765;52.354;20.884;2022-07-29T17:30:23;23.90;99.90
19263;DHT22;9765;52.354;20.884;2022-07-29T17:32:50;23.80;99.90
19263;DHT22;9765;52.354;20.884;2022-07-29T17:35:17;23.60;99.90
19263;DHT22;9765;52.354;20.884;2022-07-29T17:38:01;23.60;99.90
19263;DHT22;9765;52.354;20.884;2022-07-29T17:40:28;23.60;99.90
19263;DHT22;9765;52.354;20.884;2022-07-29T17:42:56;23.50;99.90
19263;DHT22;9765;52.354;20.884;2022-07-29T17:45:22;23.50;99.90
19263;DHT22;9765;52.354;20.884;2022-07-29T17:47:49;23.40;99.90
19263;DHT22;9765;52.354;20.884;2022-07-29T17:50:16;23.30;99.90
19263;DHT22;9765;52.354;20.884;2022-07-29T17:52:42;23.30;99.90
19263;DHT22;9765;52.354;20.884;2022-07-29T17:55:09;23.20;99.90
19263;DHT22;9765;52.354;20.884;2022-07-29T17:57:37;23.20;99.90
19263;DHT22;9765;52.354;20.884;2022-07-29T18:00:07;23.10;99.90
19263;DHT22;9765;52.354;20.884;2022-07-29T18:02:33;23.00;99.90
19263;DHT22;9765;52.354;20.884;2022-07-29T18:05:02;23.00;99.90
19263;DHT22;9765;52.354;20.884;2022-07-29T18:07:29;22.90;99.90
19263;DHT22;9765;52.354;20.884;2022-07-29T18:09:55;22.80;99.90
19263;DHT22;9765;52.354;20.884;2022-07-29T18:12:22;22.70;99.90
19263;DHT22;9765;52.354;20.884;2022-07-29T18:14:49;22.70;99.90
19263;DHT22;9765;52.354;20.884;2022-07-29T18:17:31;22.70;99.90
